»·PEaware :: N733TR KPDX-KEUG

N733TR :: KPDX-KEUG

FLIGHT INFORMATION

Flight Status: Arrived
Operator: Privately registered:
United States
More flights under this callsign
Pilot: Jonathan B. (787)
Aircraft: CESSNA 172 SKYHAWK
(C172)
More flights by this aircraft type
Origin: KPDX Portland Intl
United States
Destination: KEUG Mahlon Sweet
United States
More flights between these airports :: More routes between these airports
Route: +
File this flight plan on PilotEdge
Remarks:
Altitude:
(Current/Filed)
3,500ft
Speed:
(Current/Filed)
0kts
Departed: 05-Jun-20 04:27 PM
Arrived: 05-Jun-20 05:20 PM
Distance/Time
Traveled:
92nm/0:53
Distance/Time
To Go:
Arrived

Flight Plot

Page will automatically refresh every two minutes.

Flight plan parsing failed; only flown route is shown


Map Options




Map Legend


Flown Route
Filed Route
Departure Airport
Arrival Airport
Navaid (VOR, NDB)
Fix

Horizontal Profiles

Position Reports

Time Latitude Longitude Heading Altitude Ground
Speed
05-Jun-20 16:17 45.587415 -122.583566 64 27ft 0kts
05-Jun-20 16:18 45.587415 -122.583566 65 27ft 0kts
05-Jun-20 16:19 45.587415 -122.583566 65 27ft 0kts
05-Jun-20 16:20 45.587415 -122.583566 65 27ft 0kts
05-Jun-20 16:21 45.587611 -122.582855 102 27ft 11kts
05-Jun-20 16:22 45.586612 -122.577919 120 27ft 21kts
05-Jun-20 16:23 45.583671 -122.570331 117 27ft 12kts
05-Jun-20 16:24 45.582761 -122.567365 56 27ft 0kts
05-Jun-20 16:25 45.582778 -122.567326 58 27ft 0kts
05-Jun-20 16:26 45.589122 -122.580494 299 313ft 71kts
05-Jun-20 16:27 45.591969 -122.605043 204 1070ft 80kts
05-Jun-20 16:28 45.570723 -122.610776 179 1828ft 82kts
05-Jun-20 16:29 45.546086 -122.605401 159 2511ft 90kts
05-Jun-20 16:30 45.522713 -122.614570 198 3237ft 84kts
05-Jun-20 16:31 45.497266 -122.626558 196 3509ft 112kts
05-Jun-20 16:32 45.466462 -122.637653 194 3637ft 114kts
05-Jun-20 16:33 45.435380 -122.649935 197 3635ft 119kts
05-Jun-20 16:34 45.402845 -122.662314 196 3550ft 120kts
05-Jun-20 16:35 45.371424 -122.677720 203 3454ft 119kts
05-Jun-20 16:36 45.341505 -122.697134 202 3398ft 117kts
05-Jun-20 16:37 45.309642 -122.710285 196 3492ft 120kts
05-Jun-20 16:38 45.277558 -122.723595 195 3599ft 120kts
05-Jun-20 16:39 45.244378 -122.734335 197 3618ft 123kts
05-Jun-20 16:40 45.209972 -122.746176 190 3488ft 125kts
05-Jun-20 16:41 45.177256 -122.758901 195 3519ft 121kts
05-Jun-20 16:42 45.144776 -122.770798 193 3536ft 120kts
05-Jun-20 16:43 45.114141 -122.788971 210 3560ft 119kts
05-Jun-20 16:44 45.084040 -122.807701 191 3594ft 119kts
05-Jun-20 16:45 45.050858 -122.817072 195 3539ft 121kts
05-Jun-20 16:46 45.019379 -122.830911 202 3539ft 119kts
05-Jun-20 16:47 44.988277 -122.844945 196 3552ft 114kts
05-Jun-20 16:48 44.957508 -122.857326 197 3554ft 110kts
05-Jun-20 16:49 44.927340 -122.867873 194 3565ft 111kts
05-Jun-20 16:50 44.896968 -122.874661 184 3561ft 112kts
05-Jun-20 16:52 44.866426 -122.877069 196 3606ft 110kts
05-Jun-20 16:53 44.835920 -122.888528 194 3514ft 115kts
05-Jun-20 16:54 44.805348 -122.899752 197 3498ft 112kts
05-Jun-20 16:55 44.775458 -122.909588 197 3554ft 110kts
05-Jun-20 16:56 44.746324 -122.923600 198 3639ft 111kts
05-Jun-20 16:57 44.714647 -122.932949 187 3544ft 119kts
05-Jun-20 16:58 44.683398 -122.941858 200 3510ft 117kts
05-Jun-20 16:59 44.653905 -122.960873 208 3464ft 117kts
05-Jun-20 17:00 44.622790 -122.976580 202 3432ft 119kts
05-Jun-20 17:01 44.590719 -122.990284 201 3435ft 117kts
05-Jun-20 17:02 44.559197 -123.003724 203 3418ft 121kts
05-Jun-20 17:03 44.527489 -123.017623 203 3485ft 118kts
05-Jun-20 17:04 44.495878 -123.032500 202 3451ft 123kts
05-Jun-20 17:05 44.464207 -123.046991 204 3526ft 117kts
05-Jun-20 17:06 44.434793 -123.065049 211 3572ft 114kts
05-Jun-20 17:07 44.405117 -123.082473 199 3552ft 118kts
05-Jun-20 17:08 44.373098 -123.089465 191 3609ft 116kts
05-Jun-20 17:08 44.346229 -123.093363 197 3521ft 120kts
05-Jun-20 17:10 44.309093 -123.111665 205 2947ft 126kts
05-Jun-20 17:11 44.276593 -123.129205 201 2160ft 123kts
05-Jun-20 17:11 44.250577 -123.139111 196 2128ft 112kts
05-Jun-20 17:13 44.214899 -123.155655 207 1755ft 121kts
05-Jun-20 17:14 44.184912 -123.175861 210 1444ft 107kts
05-Jun-20 17:14 44.161991 -123.184196 192 1633ft 109kts
05-Jun-20 17:15 44.134037 -123.186019 176 1701ft 109kts
05-Jun-20 17:16 44.108518 -123.181615 186 1562ft 72kts
05-Jun-20 17:17 44.103397 -123.198644 302 1110ft 65kts
05-Jun-20 17:18 44.120773 -123.202581 3 378ft 49kts
05-Jun-20 17:19 44.122346 -123.205708 316 378ft 2kts
05-Jun-20 17:20 44.122350 -123.205714 315 378ft 0kts

Navigation Log

Ident Type
Flight plan parsing failed, navigation log unavailable